Terminal Aerodrome Forecast
Issued by NWS Portland, OR

Home | Current Version | Previous Version | Text Only | Print | Product List | Glossary On
Versions: 1 2 3 4 5 6 7 8 9 10 11 12 13 14 15 16 17 18 19 20 21 22 23 24 25
000
FTUS46 KPQR 071139
TAFTTD
TAF
KTTD 071139Z 0712/0812 VRB03KT P6SM FEW120 SCT250
     FM071400 00000KT P6SM OVC015
     FM071700 27005KT P6SM SCT020
     FM080000 VRB04KT P6SM SCT120 SCT250
     FM081000 VRB03KT P6SM FEW015=

USA.gov is the U.S. government's official web portal to all federal, state and local government web resources and services.